Loading...

Airport Sydney Kingsford Smith International Airport(YSSY)



ICAO YSSY
Land Australia
Position -33° 56.766 S 151° 10.62 E
Höhe 21 ft über NN

Pisten Länge(ft) Länge(m) HDG
07 8300ft 27224m 74
25 8300ft 27224m 254
16R 12999ft 42636m 168
34L 12999ft 42636m 348
16L 7999ft 26236m 168
34R 7999ft 26236m 348

METAR

2022/05/21 05:00 YSSY 210500Z 14012KT 9999 SCT030 BKN050 17/15 Q1029

TAF(Forecast)

2022/05/21 03:49 TAF YSSY 210206Z 2103/2206 14012KT 9999 -SHRA FEW020 BKN040 FM211000 24007KT 9999 -SHRA FEW015 BKN025 FM220000 14012KT 9999 -SHRA FEW020 SCT040 INTER 2103/2206 4000 SHRA SCT012